Time;durP1;ratioP1;P1;durP2;ratioP2;P2;SDS_P1;SDS_P2;PMS_P1;PMS_P2;Temp;Humidity;BMP_temperature;BMP_pressure;BME280_temperature;BME280_humidity;BME280_pressure;Samples;Min_cycle;Max_cycle;Signal;HPM_P1;HPM_P2
2022/09/27 00:00:10;;;;;;;2.60;2.40;;;12.20;99.90;13.60;95501.00;;;;5071696;28;20196;-76
2022/09/27 00:02:59;;;;;;;3.13;2.30;;;12.10;99.90;13.50;95497.00;;;;5071253;28;20254;-76
2022/09/27 00:05:49;;;;;;;3.23;2.90;;;12.10;99.90;13.40;95491.00;;;;5071402;28;20324;-76
2022/09/27 00:08:38;;;;;;;2.80;2.57;;;12.10;99.90;13.30;95483.00;;;;5070652;28;20208;-77
2022/09/27 00:11:30;;;;;;;3.70;3.37;;;12.00;99.90;13.20;95486.00;;;;5064008;28;20209;-76
2022/09/27 00:14:19;;;;;;;4.00;2.50;;;12.00;99.90;13.10;95497.00;;;;5067197;28;20234;-76
2022/09/27 00:17:07;;;;;;;4.80;2.40;;;11.90;99.90;12.90;95484.00;;;;5071014;28;20727;-76
2022/09/27 00:19:59;;;;;;;3.60;2.70;;;11.80;99.90;12.90;95478.00;;;;5070556;28;20192;-76
2022/09/27 00:22:50;;;;;;;2.50;2.30;;;11.70;99.90;12.80;95482.00;;;;5063325;28;20227;-76
2022/09/27 00:25:39;;;;;;;3.60;3.30;;;11.70;99.90;12.80;95474.00;;;;5071620;28;20657;-76
2022/09/27 00:28:29;;;;;;;3.77;2.87;;;11.60;99.90;12.80;95482.00;;;;5065678;28;20207;-76
2022/09/27 00:31:21;;;;;;;2.90;2.70;;;11.60;99.90;12.80;95485.00;;;;5069253;28;20203;-76
2022/09/27 00:34:18;;;;;;;4.73;2.53;;;11.50;99.90;12.90;95460.00;;;;5062814;28;20200;-76
2022/09/27 00:37:07;;;;;;;3.13;2.43;;;11.50;99.90;13.00;95469.00;;;;5056297;28;20277;-76
2022/09/27 00:39:57;;;;;;;3.03;2.73;;;11.50;99.90;12.90;95464.00;;;;5069888;28;20196;-76
2022/09/27 00:42:47;;;;;;;3.57;3.27;;;11.50;99.90;12.70;95469.00;;;;5065151;28;20258;-76
2022/09/27 00:45:35;;;;;;;2.80;2.60;;;11.50;99.90;12.60;95463.00;;;;5071296;28;20634;-76
2022/09/27 00:48:29;;;;;;;2.50;2.30;;;11.50;99.90;12.60;95462.00;;;;5069207;28;20208;-75
2022/09/27 00:51:18;;;;;;;3.67;3.27;;;11.40;99.90;12.50;95454.00;;;;5070626;28;20211;-76
2022/09/27 00:54:10;;;;;;;3.27;2.97;;;11.40;99.90;12.70;95452.00;;;;5060304;28;20205;-77
2022/09/27 00:57:02;;;;;;;4.37;3.80;;;11.40;99.90;12.90;95449.00;;;;5060475;28;20239;-76
2022/09/27 00:59:57;;;;;;;3.07;2.80;;;11.40;99.90;12.90;95459.00;;;;5069730;28;20265;-77
2022/09/27 01:02:50;;;;;;;3.67;3.33;;;11.50;99.90;13.00;95450.00;;;;5056362;28;20208;-77
2022/09/27 01:05:41;;;;;;;4.43;3.30;;;11.50;99.90;13.10;95440.00;;;;5070856;28;20231;-77
2022/09/27 01:08:29;;;;;;;3.77;3.47;;;11.50;99.90;13.20;95441.00;;;;5070017;28;20711;-76
2022/09/27 01:11:36;;;;;;;3.87;3.07;;;11.60;99.90;13.10;95439.00;;;;5070000;28;20309;-77
2022/09/27 01:14:51;;;;;;;7.60;3.63;;;11.60;99.90;13.10;95431.00;;;;5070234;28;20624;-76
2022/09/27 01:17:51;;;;;;;9.20;3.47;;;11.70;99.90;13.10;95426.00;;;;5059183;28;20249;-76
2022/09/27 01:21:24;;;;;;;3.33;3.03;;;11.70;99.90;13.30;95423.00;;;;5069744;28;20253;-77
2022/09/27 01:24:43;;;;;;;4.67;3.07;;;11.70;99.90;13.30;95416.00;;;;5069917;28;20222;-76
2022/09/27 01:28:09;;;;;;;3.47;3.17;;;11.70;99.90;13.40;95408.00;;;;5057190;28;20268;-76
2022/09/27 01:31:06;;;;;;;3.13;2.70;;;11.80;99.90;13.20;95407.00;;;;5067578;28;20263;-76
2022/09/27 01:34:04;;;;;;;3.77;3.07;;;11.80;99.90;13.40;95401.00;;;;5057361;28;20203;-76
2022/09/27 01:37:03;;;;;;;4.37;3.67;;;11.80;99.90;13.40;95397.00;;;;5063659;28;20746;-76
2022/09/27 01:40:01;;;;;;;3.70;3.13;;;11.80;99.90;13.40;95386.00;;;;5070357;28;20285;-77
2022/09/27 01:42:59;;;;;;;4.60;2.60;;;11.90;99.90;13.20;95386.00;;;;5070467;28;20245;-76
2022/09/27 01:45:52;;;;;;;5.20;3.23;;;11.80;99.90;13.30;95386.00;;;;5069680;28;20284;-76
2022/09/27 01:48:46;;;;;;;3.70;3.30;;;11.90;99.90;13.40;95384.00;;;;5069941;28;20265;-76
2022/09/27 01:51:42;;;;;;;2.73;2.50;;;11.90;99.90;13.40;95371.00;;;;5067695;28;20289;-77
2022/09/27 01:54:44;;;;;;;4.63;3.17;;;11.90;99.90;13.50;95369.00;;;;5057940;28;20208;-76
2022/09/27 01:57:37;;;;;;;3.97;3.07;;;11.90;99.90;13.50;95375.00;;;;5068575;28;20253;-76
2022/09/27 02:00:26;;;;;;;3.77;3.33;;;11.90;99.90;13.40;95368.00;;;;5070381;28;20889;-76
2022/09/27 02:03:18;;;;;;;7.33;3.10;;;11.90;99.90;13.30;95365.00;;;;5070723;28;20204;-76
2022/09/27 02:06:14;;;;;;;3.57;2.63;;;11.90;99.90;13.30;95371.00;;;;5073049;28;20224;-76
2022/09/27 02:09:07;;;;;;;6.07;3.17;;;11.90;99.90;13.10;95365.00;;;;5072901;28;20208;-76
2022/09/27 02:12:00;;;;;;;3.47;3.17;;;11.90;99.90;13.10;95353.00;;;;5064017;28;20205;-76
2022/09/27 02:14:54;;;;;;;3.40;2.87;;;11.80;99.90;13.40;95352.00;;;;5063027;28;20238;-76
2022/09/27 02:17:48;;;;;;;3.43;3.10;;;11.80;99.90;13.50;95345.00;;;;5062823;28;20218;-76
2022/09/27 02:20:41;;;;;;;4.50;3.20;;;11.90;99.90;13.60;95343.00;;;;5072936;28;20609;-77
2022/09/27 02:23:40;;;;;;;3.10;2.80;;;11.90;99.90;13.20;95336.00;;;;5073736;28;20282;-77
2022/09/27 02:26:36;;;;;;;2.77;2.57;;;11.90;99.90;13.10;95339.00;;;;5061036;28;20813;-77
2022/09/27 02:29:31;;;;;;;3.20;2.90;;;11.90;99.90;13.10;95330.00;;;;5061360;28;20208;-76
2022/09/27 02:32:20;;;;;;;2.93;2.57;;;11.90;99.90;13.20;95337.00;;;;5066250;28;20207;-76
2022/09/27 02:35:17;;;;;;;3.33;2.47;;;11.80;99.90;13.30;95338.00;;;;5056518;28;20232;-75
2022/09/27 02:38:08;;;;;;;2.83;2.63;;;11.80;99.90;13.20;95339.00;;;;5052059;28;20196;-74
2022/09/27 02:40:58;;;;;;;3.33;3.03;;;11.90;99.90;13.20;95334.00;;;;5053165;28;20208;-76
2022/09/27 02:43:51;;;;;;;3.30;3.00;;;11.90;99.90;13.30;95336.00;;;;5072997;28;20211;-76
2022/09/27 02:47:02;;;;;;;3.27;2.97;;;11.90;99.90;13.40;95336.00;;;;5068204;28;20247;-76
2022/09/27 02:50:11;;;;;;;2.87;2.57;;;11.90;99.90;13.30;95328.00;;;;5072268;28;20289;-76
2022/09/27 02:53:10;;;;;;;2.90;2.57;;;12.40;99.90;13.50;95335.00;;;;5069509;28;20208;-76
2022/09/27 02:56:09;;;;;;;6.63;2.93;;;11.90;99.90;13.60;95331.00;;;;5065643;28;20231;-76
2022/09/27 02:59:07;;;;;;;6.37;2.90;;;11.90;99.90;13.60;95321.00;;;;5072850;28;20208;-76
2022/09/27 03:02:08;;;;;;;5.87;2.97;;;12.00;99.90;13.60;95322.00;;;;5072956;28;20207;-76
2022/09/27 03:05:03;;;;;;;4.10;2.73;;;12.00;99.90;13.50;95327.00;;;;5072407;28;20589;-76
2022/09/27 03:07:52;;;;;;;3.63;2.80;;;12.00;99.90;13.40;95322.00;;;;5070861;28;20203;-76
2022/09/27 03:10:41;;;;;;;3.50;3.20;;;12.00;99.90;13.50;95326.00;;;;5072140;28;20223;-76
2022/09/27 03:13:33;;;;;;;3.13;2.83;;;12.00;99.90;13.60;95316.00;;;;5052940;28;20208;-76
2022/09/27 03:16:29;;;;;;;3.07;2.73;;;12.00;99.90;13.60;95302.00;;;;5053463;28;20220;-76
2022/09/27 03:19:18;;;;;;;3.23;2.60;;;12.00;99.90;13.70;95312.00;;;;5068692;28;20204;-76
2022/09/27 03:22:07;;;;;;;2.90;2.67;;;12.00;99.90;13.70;95307.00;;;;5071486;28;20333;-76
2022/09/27 03:24:56;;;;;;;5.43;3.37;;;12.10;99.90;13.70;95304.00;;;;5072733;28;20203;-76
2022/09/27 03:27:45;;;;;;;3.77;2.77;;;12.10;99.90;13.60;95292.00;;;;5060546;28;20219;-76
2022/09/27 03:30:36;;;;;;;3.73;3.17;;;12.10;99.90;13.60;95293.00;;;;5071857;28;20266;-76
2022/09/27 03:33:25;;;;;;;5.20;3.00;;;12.00;99.90;13.60;95280.00;;;;5068551;28;20196;-76
2022/09/27 03:36:14;;;;;;;4.37;3.20;;;12.00;99.90;13.60;95276.00;;;;5051667;28;20286;-76
2022/09/27 03:39:02;;;;;;;3.43;3.13;;;12.10;99.90;13.70;95262.00;;;;5052566;28;20259;-76
2022/09/27 03:41:51;;;;;;;3.27;2.97;;;12.10;99.90;13.40;95262.00;;;;5056079;28;20211;-76
2022/09/27 03:44:40;;;;;;;8.83;3.50;;;12.00;99.90;13.00;95254.00;;;;5070974;28;20213;-76
2022/09/27 03:47:30;;;;;;;5.77;3.13;;;12.00;99.90;12.90;95250.00;;;;5067697;28;20226;-76
2022/09/27 03:50:19;;;;;;;3.83;3.23;;;11.90;99.90;12.80;95236.00;;;;5070304;28;20231;-76
2022/09/27 03:53:08;;;;;;;3.60;3.27;;;11.80;99.90;13.00;95238.00;;;;5069872;28;20200;-76
2022/09/27 03:55:57;;;;;;;2.97;2.77;;;11.80;99.90;13.00;95235.00;;;;5062272;28;20274;-76
2022/09/27 03:58:46;;;;;;;7.17;3.40;;;11.70;99.90;13.00;95234.00;;;;5065102;22;20227;-91
2022/09/27 04:01:37;;;;;;;3.63;3.33;;;11.80;99.90;12.70;95228.00;;;;5060901;28;20240;-92
2022/09/27 04:04:28;;;;;;;5.73;3.77;;;11.70;99.90;12.80;95234.00;;;;5063230;28;20198;-92
2022/09/27 04:07:17;;;;;;;6.37;3.57;;;11.60;99.90;12.80;95221.00;;;;5070416;28;20203;-90
2022/09/27 04:10:07;;;;;;;5.63;3.13;;;11.60;99.90;12.70;95228.00;;;;5072816;28;20200;-91
2022/09/27 04:12:56;;;;;;;3.60;3.30;;;11.60;99.90;12.80;95219.00;;;;5091989;28;20285;-90
2022/09/27 04:15:45;;;;;;;4.80;3.27;;;11.60;99.90;12.80;95215.00;;;;5082933;28;20208;-90
2022/09/27 04:18:36;;;;;;;3.20;2.90;;;11.60;99.90;12.70;95216.00;;;;5071647;28;20200;-92
2022/09/27 04:21:26;;;;;;;4.13;3.00;;;11.60;99.90;12.80;95208.00;;;;5072154;28;20204;-91
2022/09/27 04:24:15;;;;;;;2.83;2.60;;;11.60;99.90;12.70;95211.00;;;;5063894;28;20204;-91
2022/09/27 04:27:04;;;;;;;7.40;3.90;;;11.50;99.90;12.90;95205.00;;;;5069520;28;20617;-91
2022/09/27 04:29:53;;;;;;;4.03;3.60;;;11.50;99.90;12.70;95197.00;;;;5071562;28;20258;-91
2022/09/27 04:32:43;;;;;;;4.20;3.80;;;11.60;99.90;12.80;95193.00;;;;5072026;28;20278;-92
2022/09/27 04:38:43;;;;;;;3.57;3.27;;;11.70;99.90;13.10;95191.00;;;;5068263;28;20204;-93
2022/09/27 04:41:32;;;;;;;7.67;3.60;;;11.80;99.90;13.10;95186.00;;;;5073496;28;20238;-93
2022/09/27 04:44:38;;;;;;;4.33;3.87;;;11.70;99.90;13.00;95190.00;;;;5067823;28;20261;-93
2022/09/27 04:47:34;;;;;;;5.40;3.10;;;8.60;99.90;12.90;95180.00;;;;5088712;22;21000;-66
2022/09/27 04:50:23;;;;;;;3.53;3.23;;;11.60;99.90;12.90;95172.00;;;;5048792;28;20262;-69
2022/09/27 04:53:14;;;;;;;3.27;2.97;;;11.60;99.90;12.80;95166.00;;;;5050293;28;20359;-69
2022/09/27 04:56:05;;;;;;;3.60;3.30;;;11.60;99.90;12.90;95171.00;;;;5048804;28;20604;-68
2022/09/27 04:58:54;;;;;;;7.20;3.60;;;11.60;99.90;13.10;95164.00;;;;5050143;28;20223;-69
2022/09/27 05:01:44;;;;;;;5.67;2.90;;;11.60;99.90;13.20;95156.00;;;;5049806;28;20630;-69
2022/09/27 05:04:32;;;;;;;7.23;3.70;;;11.60;99.90;13.20;95152.00;;;;5050579;28;20220;-69
2022/09/27 05:07:21;;;;;;;3.90;3.50;;;11.60;99.90;13.20;95155.00;;;;5048313;28;20201;-69
2022/09/27 05:10:10;;;;;;;3.83;3.10;;;11.60;99.90;13.20;95163.00;;;;5046571;28;20221;-69
2022/09/27 05:13:00;;;;;;;5.23;3.93;;;11.60;99.90;13.10;95155.00;;;;5050015;28;20235;-69
2022/09/27 05:15:51;;;;;;;6.83;4.30;;;11.60;99.90;13.00;95156.00;;;;5050923;28;20683;-69
2022/09/27 05:18:39;;;;;;;10.63;9.50;;;11.70;99.90;13.00;95157.00;;;;5050628;28;20220;-69
2022/09/27 05:21:28;;;;;;;10.37;8.90;;;11.60;99.90;12.90;95150.00;;;;5050498;28;20262;-69
2022/09/27 05:24:17;;;;;;;5.53;5.03;;;11.60;99.90;12.90;95156.00;;;;5030530;28;20206;-68
2022/09/27 05:27:07;;;;;;;7.30;5.33;;;11.60;99.90;12.70;95155.00;;;;5047530;28;20678;-68
2022/09/27 05:29:59;;;;;;;6.17;5.57;;;11.50;99.90;12.80;95153.00;;;;5050606;28;20735;-69
2022/09/27 05:32:48;;;;;;;6.33;5.33;;;11.50;99.90;12.90;95156.00;;;;5049741;28;20732;-68
2022/09/27 05:35:41;;;;;;;5.17;4.47;;;11.50;99.90;12.70;95155.00;;;;5050194;28;20236;-68
2022/09/27 05:38:34;;;;;;;5.73;5.23;;;11.50;99.90;12.70;95147.00;;;;5030448;28;20821;-68
2022/09/27 05:41:22;;;;;;;12.90;10.43;;;11.50;99.90;12.80;95156.00;;;;5039728;28;20204;-69
2022/09/27 05:44:12;;;;;;;9.20;7.83;;;11.50;99.90;12.80;95144.00;;;;5054908;28;20207;-69
2022/09/27 05:47:03;;;;;;;4.83;3.93;;;11.50;99.90;12.80;95147.00;;;;5052645;28;20197;-69
2022/09/27 05:49:52;;;;;;;4.70;3.93;;;11.50;99.90;12.80;95142.00;;;;5052330;28;20216;-69
2022/09/27 05:52:41;;;;;;;4.27;3.87;;;11.50;99.90;13.00;95135.00;;;;5051393;28;20221;-68
2022/09/27 05:55:30;;;;;;;3.67;3.37;;;11.60;99.90;13.20;95136.00;;;;5047772;28;20278;-69
2022/09/27 05:58:19;;;;;;;5.40;3.83;;;11.60;99.90;13.30;95141.00;;;;5050723;28;20252;-68
2022/09/27 06:01:08;;;;;;;3.97;3.60;;;11.60;99.90;13.30;95142.00;;;;5052034;28;20227;-68
2022/09/27 06:03:58;;;;;;;4.87;4.47;;;11.70;99.90;13.40;95139.00;;;;5044504;28;20211;-69
2022/09/27 06:06:49;;;;;;;4.57;4.17;;;11.70;99.90;13.40;95134.00;;;;5053541;28;20212;-69
2022/09/27 06:09:37;;;;;;;4.67;4.27;;;11.70;99.90;13.40;95134.00;;;;5051013;28;20225;-69
2022/09/27 06:12:26;;;;;;;4.50;4.10;;;11.80;99.90;13.40;95140.00;;;;5051662;28;20263;-69
2022/09/27 06:15:15;;;;;;;5.57;3.90;;;11.80;99.90;13.10;95132.00;;;;5053152;28;20200;-68
2022/09/27 06:18:08;;;;;;;7.53;6.93;;;11.80;99.90;13.10;95132.00;;;;5048872;28;20208;-68
2022/09/27 06:20:59;;;;;;;6.43;5.93;;;11.80;99.90;13.10;95139.00;;;;5061100;28;21047;-69
2022/09/27 06:23:48;;;;;;;5.60;4.97;;;11.80;99.90;13.10;95129.00;;;;5050324;28;20266;-68
2022/09/27 06:26:39;;;;;;;7.57;5.53;;;11.80;99.90;13.10;95129.00;;;;5049507;28;20215;-69
2022/09/27 06:29:28;;;;;;;5.90;4.83;;;11.80;99.90;13.40;95129.00;;;;5032362;28;20290;-68
2022/09/27 06:32:17;;;;;;;4.97;4.47;;;11.80;99.90;13.50;95129.00;;;;5044974;28;20299;-68
2022/09/27 06:35:06;;;;;;;6.80;5.27;;;11.80;99.90;13.70;95130.00;;;;5049723;28;20330;-68
2022/09/27 06:37:57;;;;;;;5.33;4.73;;;11.90;99.90;13.60;95126.00;;;;5066131;28;20205;-69
2022/09/27 06:40:46;;;;;;;4.67;4.27;;;12.00;99.90;13.60;95128.00;;;;5049684;28;20200;-68
2022/09/27 06:43:35;;;;;;;9.27;7.67;;;12.00;99.90;13.70;95123.00;;;;5049583;28;20582;-69
2022/09/27 06:46:24;;;;;;;8.07;7.27;;;12.10;99.90;13.70;95116.00;;;;5045578;28;20674;-68
2022/09/27 06:49:13;;;;;;;7.80;5.80;;;12.10;99.90;13.70;95119.00;;;;5049446;28;20911;-68
2022/09/27 06:52:02;;;;;;;6.73;5.70;;;12.20;99.90;13.90;95117.00;;;;5050241;28;20209;-69
2022/09/27 06:54:52;;;;;;;6.00;5.40;;;12.20;99.90;13.80;95113.00;;;;5051237;28;20278;-69
2022/09/27 07:00:50;;;;;;;6.90;6.25;;;12.30;99.90;13.70;95117.00;;;;5033380;28;20300;-69
2022/09/27 07:03:41;;;;;;;7.00;6.30;;;12.20;99.90;14.00;95125.00;;;;5007913;28;20206;-68
2022/09/27 07:06:31;;;;;;;6.77;6.03;;;12.30;99.90;14.20;95135.00;;;;5005403;28;20210;-69
2022/09/27 07:09:19;;;;;;;6.63;6.03;;;12.40;99.90;14.30;95129.00;;;;5008410;28;20842;-68
2022/09/27 07:12:12;;;;;;;6.40;5.73;;;12.50;99.90;14.20;95136.00;;;;5011757;28;20210;-68
2022/09/27 07:15:01;;;;;;;10.50;5.67;;;12.50;99.90;14.40;95140.00;;;;5010596;28;20224;-69
2022/09/27 07:17:57;;;;;;;6.60;5.53;;;12.60;99.90;14.30;95136.00;;;;5007463;28;20217;-68
2022/09/27 07:20:46;;;;;;;5.23;4.73;;;12.60;99.90;14.20;95144.00;;;;5007560;28;20213;-68
2022/09/27 07:23:35;;;;;;;4.80;4.40;;;12.70;99.90;14.00;95146.00;;;;5007064;28;20213;-69
2022/09/27 07:26:24;;;;;;;4.90;4.50;;;12.60;99.90;13.80;95154.00;;;;5006309;28;20201;-69
2022/09/27 07:29:15;;;;;;;6.43;4.90;;;12.60;99.90;13.90;95154.00;;;;5011331;28;20234;-69
2022/09/27 07:32:04;;;;;;;5.60;5.10;;;12.50;99.90;14.10;95168.00;;;;5007823;28;20209;-68
2022/09/27 07:34:53;;;;;;;6.40;5.43;;;12.60;99.90;14.00;95171.00;;;;5009495;28;20217;-69
2022/09/27 07:37:44;;;;;;;6.23;5.03;;;12.60;99.90;14.20;95162.00;;;;5010475;28;20698;-69
2022/09/27 07:40:33;;;;;;;7.27;5.40;;;12.60;99.90;14.30;95169.00;;;;5012996;28;20209;-69
2022/09/27 07:43:22;;;;;;;6.43;5.73;;;12.70;99.90;14.40;95177.00;;;;5009511;28;20768;-68
2022/09/27 07:46:13;;;;;;;8.37;5.77;;;12.70;99.90;14.40;95168.00;;;;5007228;28;20210;-69
2022/09/27 07:49:02;;;;;;;5.77;5.07;;;12.80;99.90;14.60;95169.00;;;;4994210;28;20237;-69
2022/09/27 07:51:51;;;;;;;6.73;6.10;;;12.90;99.90;14.80;95173.00;;;;4989043;28;20214;-69
2022/09/27 07:54:40;;;;;;;6.07;5.00;;;13.00;99.90;14.90;95180.00;;;;4983317;28;20237;-69
2022/09/27 07:57:28;;;;;;;8.03;5.93;;;13.10;99.90;14.90;95179.00;;;;4988522;28;20247;-69
2022/09/27 08:00:19;;;;;;;7.10;6.17;;;13.20;99.90;15.10;95185.00;;;;4985773;28;20698;-69
2022/09/27 08:03:14;;;;;;;5.40;4.90;;;13.20;99.90;15.20;95174.00;;;;4988969;28;20668;-69
2022/09/27 08:06:04;;;;;;;5.73;5.13;;;13.30;99.90;15.30;95172.00;;;;4988185;28;20210;-68
2022/09/27 08:08:53;;;;;;;7.20;6.37;;;13.40;99.90;15.40;95177.00;;;;4989407;28;20300;-69
2022/09/27 08:11:43;;;;;;;6.37;5.50;;;13.60;99.90;15.60;95180.00;;;;4991387;28;20205;-69
2022/09/27 08:14:32;;;;;;;5.73;5.20;;;13.60;99.90;15.60;95177.00;;;;4989871;28;20222;-69
2022/09/27 08:17:23;;;;;;;5.97;5.47;;;13.70;99.90;15.70;95188.00;;;;4987462;28;20285;-68
2022/09/27 08:20:13;;;;;;;6.20;5.60;;;13.80;99.90;15.70;95187.00;;;;4989997;28;20613;-69
2022/09/27 08:23:03;;;;;;;9.00;5.90;;;13.90;99.90;15.90;95194.00;;;;4988011;28;20686;-69
2022/09/27 08:25:53;;;;;;;6.90;6.20;;;13.90;99.90;16.00;95190.00;;;;4982648;28;20213;-68
2022/09/27 08:28:42;;;;;;;8.03;6.67;;;14.00;99.90;16.00;95178.00;;;;4987900;28;20222;-69
2022/09/27 08:31:31;;;;;;;8.43;5.70;;;14.10;99.90;16.10;95185.00;;;;4987403;28;20277;-69
2022/09/27 08:34:20;;;;;;;8.57;5.80;;;14.10;99.90;16.00;95192.00;;;;4987480;28;20230;-69
2022/09/27 08:37:10;;;;;;;6.73;6.00;;;14.20;99.90;16.00;95189.00;;;;4985979;28;20662;-69
2022/09/27 08:39:59;;;;;;;6.00;5.10;;;14.20;99.90;15.90;95187.00;;;;4989358;28;20281;-68
2022/09/27 08:43:00;;;;;;;6.53;5.63;;;14.30;99.90;16.10;95190.00;;;;4988859;28;20225;-67
2022/09/27 08:46:07;;;;;;;7.40;5.03;;;14.30;99.90;16.40;95189.00;;;;4987097;28;20686;-68
2022/09/27 08:49:05;;;;;;;6.47;5.87;;;14.30;99.90;16.50;95195.00;;;;5001270;28;20718;-68
2022/09/27 08:51:57;;;;;;;5.87;4.80;;;14.40;99.90;16.60;95197.00;;;;5006930;28;20210;-68
2022/09/27 08:54:49;;;;;;;6.00;4.40;;;14.60;99.90;16.60;95195.00;;;;5005720;28;20271;-68
2022/09/27 08:57:38;;;;;;;5.50;4.57;;;14.70;99.90;16.70;95193.00;;;;5006770;28;20205;-68
2022/09/27 09:00:29;;;;;;;5.30;4.70;;;14.80;99.90;16.70;95201.00;;;;5000653;28;20238;-67
2022/09/27 09:03:21;;;;;;;5.97;4.90;;;14.80;99.90;16.70;95208.00;;;;5010035;28;20212;-68
2022/09/27 09:06:19;;;;;;;5.20;4.73;;;14.80;99.90;16.60;95218.00;;;;5009516;28;20202;-68
2022/09/27 09:09:21;;;;;;;4.47;4.03;;;14.80;99.90;16.70;95207.00;;;;5006218;28;20279;-68
2022/09/27 09:15:54;;;;;;;5.10;4.60;;;14.80;99.90;16.60;95214.00;;;;5010821;28;20220;-67
2022/09/27 09:19:04;;;;;;;5.07;4.67;;;14.80;99.90;16.60;95209.00;;;;5013044;28;20248;-67
2022/09/27 09:22:07;;;;;;;6.17;4.73;;;14.80;99.90;16.60;95214.00;;;;5010349;28;20217;-67
2022/09/27 09:25:17;;;;;;;5.83;4.33;;;14.80;99.90;16.80;95205.00;;;;5013340;28;20208;-68
2022/09/27 09:28:27;;;;;;;5.83;4.47;;;14.80;99.90;16.70;95223.00;;;;5012887;28;20255;-67
2022/09/27 09:31:27;;;;;;;4.10;3.80;;;14.90;99.90;15.90;95232.00;;;;5010074;28;20201;-67
2022/09/27 09:34:20;;;;;;;3.67;3.37;;;14.80;99.90;15.70;95226.00;;;;5012090;28;20233;-68
2022/09/27 09:37:16;;;;;;;3.70;3.40;;;14.60;99.90;15.70;95231.00;;;;5015729;28;20282;-68
2022/09/27 09:40:19;;;;;;;4.77;3.73;;;14.50;99.90;15.60;95235.00;;;;5009931;28;20225;-68
2022/09/27 09:43:16;;;;;;;1.33;1.23;;;14.30;99.90;15.10;95223.00;;;;5011982;28;20660;-68
2022/09/27 09:46:12;;;;;;;1.07;1.03;;;14.00;99.90;14.60;95204.00;;;;5009853;28;20198;-68
2022/09/27 09:49:08;;;;;;;2.43;1.63;;;13.80;99.90;15.30;95225.00;;;;5012080;28;20233;-68
2022/09/27 09:52:04;;;;;;;2.77;1.10;;;13.70;99.90;15.00;95228.00;;;;5010776;28;20236;-68
2022/09/27 09:55:04;;;;;;;3.27;1.20;;;13.70;99.90;14.90;95234.00;;;;5012002;28;20359;-68
2022/09/27 09:58:05;;;;;;;1.03;1.00;;;13.60;99.90;15.00;95230.00;;;;5011196;28;20272;-68
2022/09/27 10:01:10;;;;;;;4.37;0.83;;;13.50;99.90;15.10;95206.00;;;;5047846;23;20639;-73
2022/09/27 10:03:59;;;;;;;1.97;1.20;;;13.40;99.90;15.00;95207.00;;;;5027487;28;20231;-74
2022/09/27 10:06:48;;;;;;;1.47;1.00;;;13.40;99.90;14.80;95203.00;;;;5026320;28;20208;-74
2022/09/27 10:09:37;;;;;;;1.10;1.00;;;13.40;99.90;14.50;95196.00;;;;5028326;28;20221;-74
2022/09/27 10:12:27;;;;;;;0.80;0.80;;;13.20;99.90;14.40;95205.00;;;;5026513;28;20272;-74
2022/09/27 10:15:20;;;;;;;0.80;0.80;;;13.10;99.90;14.30;95205.00;;;;5026451;28;20308;-75
2022/09/27 10:18:18;;;;;;;0.77;0.73;;;12.90;99.90;14.30;95204.00;;;;5024178;28;20205;-74
2022/09/27 10:21:12;;;;;;;1.73;0.90;;;12.90;99.90;14.40;95221.00;;;;5025146;28;20241;-74
2022/09/27 10:24:11;;;;;;;3.90;0.87;;;12.80;99.90;14.20;95222.00;;;;5028267;28;20210;-75
2022/09/27 10:27:02;;;;;;;1.00;0.90;;;12.70;99.90;13.80;95219.00;;;;5024170;28;20208;-75
2022/09/27 10:29:58;;;;;;;0.60;0.60;;;12.70;99.90;14.00;95221.00;;;;5020317;28;20218;-75
2022/09/27 10:32:53;;;;;;;1.93;0.60;;;12.60;99.90;14.20;95221.00;;;;5025565;28;20209;-75
2022/09/27 10:35:48;;;;;;;0.60;0.60;;;12.60;99.90;14.20;95225.00;;;;5025363;28;20221;-75
2022/09/27 10:38:37;;;;;;;0.80;0.80;;;12.60;99.90;14.20;95223.00;;;;5023226;28;20216;-74
2022/09/27 10:41:32;;;;;;;1.27;0.90;;;12.60;99.90;14.20;95230.00;;;;5023569;28;20201;-75
2022/09/27 10:44:26;;;;;;;2.40;0.70;;;12.60;99.90;14.20;95235.00;;;;5026262;28;20205;-75
2022/09/27 10:47:21;;;;;;;0.60;0.60;;;12.60;99.90;14.00;95229.00;;;;5023933;28;20220;-75
2022/09/27 10:50:20;;;;;;;0.60;0.50;;;12.60;99.90;14.20;95229.00;;;;5024599;28;20232;-75
2022/09/27 10:53:22;;;;;;;0.40;0.40;;;12.60;99.90;14.30;95232.00;;;;5024908;28;20621;-75
2022/09/27 10:56:23;;;;;;;0.63;0.50;;;12.60;99.90;14.30;95226.00;;;;5019895;28;20724;-75
2022/09/27 10:59:18;;;;;;;0.53;0.53;;;12.60;99.90;14.80;95223.00;;;;5020299;28;20212;-75
2022/09/27 11:02:20;;;;;;;1.57;0.40;;;12.80;99.90;15.00;95233.00;;;;5024473;28;20744;-74
2022/09/27 11:05:13;;;;;;;1.40;0.77;;;12.90;99.90;15.30;95228.00;;;;5026163;28;20201;-75
2022/09/27 11:08:25;;;;;;;0.97;0.70;;;13.10;99.90;15.30;95232.00;;;;5023321;28;20578;-75
2022/09/27 11:11:20;;;;;;;0.80;0.80;;;13.30;99.90;15.50;95230.00;;;;5024451;28;20224;-74
2022/09/27 11:14:20;;;;;;;0.80;0.80;;;13.40;99.90;15.30;95223.00;;;;5025911;28;20208;-74
2022/09/27 11:17:16;;;;;;;1.13;0.80;;;13.60;99.90;15.50;95213.00;;;;5023590;28;20271;-74
2022/09/27 11:20:27;;;;;;;5.63;1.00;;;13.70;99.90;15.80;95219.00;;;;5026095;28;20217;-74
2022/09/27 11:23:35;;;;;;;1.33;1.03;;;13.80;99.90;16.10;95217.00;;;;5024069;28;20205;-74
2022/09/27 11:26:37;;;;;;;1.53;1.13;;;13.90;99.90;16.10;95208.00;;;;5024088;28;20206;-74
2022/09/27 11:29:35;;;;;;;1.50;1.40;;;14.10;99.90;15.90;95209.00;;;;5026225;28;20748;-74
2022/09/27 11:32:36;;;;;;;1.63;1.10;;;14.10;99.90;16.10;95207.00;;;;5025279;28;20237;-74
2022/09/27 11:35:45;;;;;;;2.13;1.10;;;14.10;99.90;16.10;95209.00;;;;5022567;28;20734;-74
2022/09/27 11:38:51;;;;;;;1.03;0.93;;;14.20;99.90;16.10;95211.00;;;;5022867;28;20209;-74
2022/09/27 11:42:01;;;;;;;1.07;0.83;;;14.20;99.90;16.20;95197.00;;;;5023672;28;20201;-74
2022/09/27 11:45:11;;;;;;;1.60;1.30;;;14.20;99.90;16.20;95212.00;;;;5021365;28;20224;-75
2022/09/27 11:48:42;;;;;;;1.63;1.20;;;14.30;99.90;15.70;95206.00;;;;5019323;28;20214;-75
2022/09/27 11:52:02;;;;;;;2.03;1.10;;;14.20;99.90;15.80;95203.00;;;;5024326;28;20213;-75
2022/09/27 11:55:16;;;;;;;3.20;1.33;;;14.10;99.90;15.80;95197.00;;;;5021473;28;20703;-75
2022/09/27 11:58:17;;;;;;;1.07;1.00;;;14.10;99.90;15.70;95187.00;;;;5019793;28;20980;-75
2022/09/27 12:01:17;;;;;;;1.00;0.90;;;14.00;99.90;15.50;95187.00;;;;5022371;28;20732;-74
2022/09/27 12:04:42;;;;;;;0.90;0.90;;;13.90;99.90;15.40;95192.00;;;;5023709;28;20209;-75
2022/09/27 12:07:43;;;;;;;0.90;0.80;;;13.80;99.90;15.30;95192.00;;;;5016873;28;20206;-75
2022/09/27 12:10:36;;;;;;;0.97;0.73;;;13.70;99.90;15.40;95182.00;;;;5011810;28;20631;-75
2022/09/27 12:13:33;;;;;;;1.00;0.90;;;13.70;99.90;15.30;95191.00;;;;5013858;28;20230;-75
2022/09/27 12:16:23;;;;;;;0.80;0.80;;;13.60;99.90;15.30;95201.00;;;;5011121;28;20232;-75
2022/09/27 12:19:19;;;;;;;1.40;1.00;;;13.60;99.90;15.30;95194.00;;;;5020189;28;20198;-75
2022/09/27 12:22:15;;;;;;;0.97;0.87;;;13.50;99.90;15.30;95202.00;;;;5016069;28;20205;-75
2022/09/27 12:25:05;;;;;;;1.00;0.90;;;13.50;99.90;15.40;95214.00;;;;5006730;28;20570;-75
2022/09/27 12:28:03;;;;;;;5.93;0.90;;;13.60;99.90;15.20;95221.00;;;;5013079;28;20209;-75
2022/09/27 12:31:01;;;;;;;1.60;1.20;;;13.60;99.90;14.90;95210.00;;;;5013462;28;20221;-75
2022/09/27 12:34:15;;;;;;;1.17;1.07;;;13.60;99.90;14.80;95217.00;;;;5016446;28;20212;-75
2022/09/27 12:37:13;;;;;;;1.60;1.27;;;13.40;99.90;15.10;95234.00;;;;5022525;28;20200;-74
2022/09/27 12:40:13;;;;;;;1.97;0.87;;;13.50;99.90;15.20;95221.00;;;;5017992;28;20718;-75
2022/09/27 12:43:09;;;;;;;1.63;1.10;;;13.60;99.90;15.40;95233.00;;;;5023507;28;20591;-75
2022/09/27 12:46:08;;;;;;;1.47;1.10;;;13.60;99.90;15.60;95229.00;;;;5016276;28;20213;-74
2022/09/27 12:49:05;;;;;;;2.83;1.80;;;13.70;99.90;15.70;95227.00;;;;5013204;28;20728;-74
2022/09/27 12:51:59;;;;;;;2.27;1.80;;;13.80;99.90;15.60;95219.00;;;;5020975;28;20299;-74
2022/09/27 12:55:30;;;;;;;2.00;1.10;;;13.90;99.90;15.60;95225.00;;;;5026935;28;20206;-75
2022/09/27 12:58:58;;;;;;;1.33;1.03;;;13.90;99.90;15.90;95228.00;;;;5020262;28;20693;-75
2022/09/27 13:02:09;;;;;;;1.00;0.90;;;14.00;99.90;15.80;95224.00;;;;5013213;28;20202;-74
2022/09/27 13:05:41;;;;;;;1.53;1.00;;;14.10;99.90;16.10;95224.00;;;;5028117;28;20197;-74